createdAt,value
2018-02-20T00:00:06.606Z,0
2018-02-20T00:01:16.608Z,0
2018-02-20T00:02:26.629Z,0
2018-02-20T00:03:35.584Z,0
2018-02-20T00:04:45.046Z,0
2018-02-20T00:05:54.898Z,0
2018-02-20T00:07:04.912Z,0
2018-02-20T00:08:14.170Z,0
2018-02-20T00:09:24.176Z,0
2018-02-20T00:10:33.906Z,0
2018-02-20T00:11:43.913Z,0
2018-02-20T00:12:53.829Z,0
2018-02-20T00:14:03.608Z,0
2018-02-20T00:15:13.636Z,0
2018-02-20T00:16:23.159Z,0
2018-02-20T00:17:32.892Z,0
2018-02-20T00:18:42.965Z,0
2018-02-20T00:19:52.706Z,0
2018-02-20T00:21:02.444Z,0
2018-02-20T00:22:12.462Z,0
2018-02-20T00:23:22.464Z,0
2018-02-20T00:24:32.239Z,0
2018-02-20T00:25:41.978Z,0
2018-02-20T00:26:51.036Z,0
2018-02-20T00:28:00.770Z,0
2018-02-20T00:29:10.817Z,0
2018-02-20T00:30:20.580Z,0
2018-02-20T00:31:30.316Z,0
2018-02-20T00:32:40.067Z,0
2018-02-20T00:33:49.263Z,0
2018-02-20T00:34:59.313Z,0
2018-02-20T00:36:08.940Z,0
2018-02-20T00:37:18.687Z,0
2018-02-20T00:38:27.886Z,0
2018-02-20T00:39:37.610Z,0
2018-02-20T00:40:47.657Z,0
2018-02-20T00:41:57.656Z,0
2018-02-20T00:43:07.150Z,0
2018-02-20T00:44:16.878Z,0
2018-02-20T00:45:26.371Z,0
2018-02-20T00:46:36.137Z,0
2018-02-20T00:47:45.891Z,0
2018-02-20T00:48:55.356Z,0
2018-02-20T00:50:04.558Z,0
2018-02-20T00:51:14.026Z,0
2018-02-20T00:52:24.194Z,0
2018-02-20T00:53:34.070Z,0
2018-02-20T00:54:43.874Z,0
2018-02-20T00:55:53.936Z,0
2018-02-20T00:57:03.630Z,0
2018-02-20T00:58:13.646Z,0
2018-02-20T00:59:23.379Z,0
2018-02-20T01:00:32.489Z,0
2018-02-20T01:01:41.751Z,0
2018-02-20T01:02:51.539Z,0
2018-02-20T01:04:01.270Z,0
2018-02-20T01:05:10.746Z,0
2018-02-20T01:06:20.543Z,0
2018-02-20T01:07:30.805Z,0
2018-02-20T01:08:40.269Z,0
2018-02-20T01:09:50.271Z,0
2018-02-20T01:11:00.024Z,0
2018-02-20T01:12:09.487Z,0
2018-02-20T01:13:19.494Z,0
2018-02-20T01:14:28.723Z,0
2018-02-20T01:15:38.464Z,0
2018-02-20T01:16:47.660Z,0
2018-02-20T01:17:57.388Z,0
2018-02-20T01:19:07.497Z,0
2018-02-20T01:20:17.228Z,0
2018-02-20T01:21:26.693Z,0
2018-02-20T01:22:36.687Z,0
2018-02-20T01:23:46.680Z,0
2018-02-20T01:24:56.675Z,0
2018-02-20T01:26:06.404Z,0
2018-02-20T01:27:16.499Z,0
2018-02-20T01:28:25.958Z,0
2018-02-20T01:29:35.439Z,0
2018-02-20T01:30:44.946Z,0
2018-02-20T01:31:54.672Z,0
2018-02-20T01:33:04.676Z,0
2018-02-20T01:34:14.404Z,0
2018-02-20T01:35:24.131Z,0
2018-02-20T01:36:33.350Z,0
2018-02-20T01:37:43.126Z,0
2018-02-20T01:38:52.858Z,0
2018-02-20T01:40:02.925Z,0
2018-02-20T01:41:12.385Z,0
2018-02-20T01:42:22.116Z,0
2018-02-20T01:43:31.851Z,0
2018-02-20T01:44:41.045Z,0
2018-02-20T01:45:50.770Z,0
2018-02-20T01:47:00.223Z,0
2018-02-20T01:48:09.950Z,0
2018-02-20T01:49:19.951Z,0
2018-02-20T01:50:29.963Z,0
2018-02-20T01:51:39.424Z,0
2018-02-20T01:52:49.171Z,0
2018-02-20T01:53:59.212Z,0
2018-02-20T01:55:08.946Z,0
2018-02-20T01:56:18.670Z,0
2018-02-20T01:57:28.410Z,0
2018-02-20T01:58:38.136Z,0
2018-02-20T01:59:47.059Z,0
2018-02-20T02:00:56.785Z,0
2018-02-20T02:02:06.569Z,0
2018-02-20T02:03:16.031Z,0
2018-02-20T02:04:25.766Z,0
2018-02-20T02:05:34.957Z,0
2018-02-20T02:06:44.676Z,0
2018-02-20T02:07:54.135Z,0
2018-02-20T02:09:03.866Z,0
2018-02-20T02:10:13.865Z,0
2018-02-20T02:11:23.327Z,0
2018-02-20T02:12:33.054Z,0
2018-02-20T02:13:42.787Z,0
2018-02-20T02:14:52.252Z,0
2018-02-20T02:16:01.723Z,0
2018-02-20T02:17:11.186Z,0
2018-02-20T02:18:21.245Z,0
2018-02-20T02:19:30.712Z,0
2018-02-20T02:20:40.450Z,0
2018-02-20T02:21:49.378Z,0
2018-02-20T02:22:59.128Z,0
2018-02-20T02:24:08.867Z,0
2018-02-20T02:25:18.598Z,0
2018-02-20T02:26:28.335Z,0
2018-02-20T02:27:37.797Z,0
2018-02-20T02:28:47.530Z,0
2018-02-20T02:29:56.732Z,0
2018-02-20T02:31:05.664Z,0
2018-02-20T02:32:15.420Z,0
2018-02-20T02:33:25.434Z,0
2018-02-20T02:34:35.170Z,0
2018-02-20T02:35:57.661Z,0
2018-02-20T02:37:07.415Z,0
2018-02-20T02:38:17.150Z,0
2018-02-20T02:39:26.619Z,0
2018-02-20T02:40:36.082Z,0
2018-02-20T02:41:45.557Z,0
2018-02-20T02:42:55.027Z,0
2018-02-20T02:44:04.763Z,0
2018-02-20T02:45:14.533Z,0
2018-02-20T02:46:24.012Z,0
2018-02-20T02:47:33.492Z,0
2018-02-20T02:48:42.967Z,0
2018-02-20T02:49:52.725Z,0
2018-02-20T02:51:02.193Z,0
2018-02-20T02:52:11.402Z,0
2018-02-20T02:53:21.188Z,0
2018-02-20T02:54:30.923Z,0
2018-02-20T02:55:40.677Z,0
2018-02-20T02:56:50.143Z,0
2018-02-20T02:58:00.146Z,0
2018-02-20T02:59:09.637Z,0
2018-02-20T03:00:19.363Z,0
2018-02-20T03:01:28.829Z,0
2018-02-20T03:02:38.578Z,0
2018-02-20T03:03:48.321Z,0
2018-02-20T03:04:58.339Z,0
2018-02-20T03:06:08.076Z,0
2018-02-20T03:07:18.149Z,0
2018-02-20T03:08:27.612Z,0
2018-02-20T03:09:37.671Z,0
2018-02-20T03:10:47.668Z,0
2018-02-20T03:11:57.140Z,0
2018-02-20T03:13:07.144Z,0
2018-02-20T03:14:17.146Z,0
2018-02-20T03:15:27.145Z,0
2018-02-20T03:16:36.885Z,0
2018-02-20T03:17:46.611Z,0
2018-02-20T03:18:56.075Z,0
2018-02-20T03:20:05.000Z,0
2018-02-20T03:21:15.001Z,0
2018-02-20T03:22:24.738Z,0
2018-02-20T03:23:34.748Z,0
2018-02-20T03:24:44.479Z,0
2018-02-20T03:25:54.223Z,0
2018-02-20T03:27:04.212Z,0
2018-02-20T03:28:13.940Z,0
2018-02-20T03:29:23.690Z,0
2018-02-20T03:30:33.442Z,0
2018-02-20T03:31:43.200Z,0
2018-02-20T03:32:52.402Z,0
2018-02-20T03:34:01.873Z,0
2018-02-20T03:35:11.622Z,0
2018-02-20T03:36:21.105Z,0
2018-02-20T03:37:31.102Z,0
2018-02-20T03:38:40.570Z,0
2018-02-20T03:39:50.298Z,0
2018-02-20T03:41:00.050Z,0
2018-02-20T03:42:09.521Z,0
2018-02-20T03:43:19.243Z,0
2018-02-20T03:44:28.701Z,0
2018-02-20T03:45:38.436Z,0
2018-02-20T03:46:48.438Z,0
2018-02-20T03:47:58.436Z,0
2018-02-20T03:49:08.198Z,0
2018-02-20T03:50:17.396Z,0
2018-02-20T03:51:26.855Z,0
2018-02-20T03:52:36.048Z,0
2018-02-20T03:53:45.532Z,0
2018-02-20T03:54:55.005Z,0
2018-02-20T03:56:04.476Z,0
2018-02-20T03:57:14.474Z,0
2018-02-20T03:58:24.211Z,0
2018-02-20T03:59:33.956Z,0
2018-02-20T04:00:43.423Z,0
2018-02-20T04:01:53.147Z,0
2018-02-20T04:03:02.614Z,0
2018-02-20T04:04:12.368Z,0
2018-02-20T04:05:22.120Z,0
2018-02-20T04:06:31.599Z,0
2018-02-20T04:07:41.062Z,0
2018-02-20T04:08:50.546Z,0
2018-02-20T04:10:00.557Z,0
2018-02-20T04:11:10.032Z,0
2018-02-20T04:12:19.235Z,0
2018-02-20T04:13:28.714Z,0
2018-02-20T04:14:38.713Z,0
2018-02-20T04:15:47.912Z,0
2018-02-20T04:16:57.382Z,0
2018-02-20T04:18:07.114Z,0
2018-02-20T04:19:16.852Z,0
2018-02-20T04:20:26.579Z,0
2018-02-20T04:21:36.584Z,0
2018-02-20T04:22:46.048Z,0
2018-02-20T04:23:55.789Z,0
2018-02-20T04:25:05.262Z,0
2018-02-20T04:26:15.261Z,0
2018-02-20T04:27:25.246Z,0
2018-02-20T04:28:34.974Z,0
2018-02-20T04:29:44.700Z,0
2018-02-20T04:30:54.699Z,0
2018-02-20T04:32:04.271Z,0
2018-02-20T04:33:14.278Z,0
2018-02-20T04:34:23.474Z,0
2018-02-20T04:35:33.195Z,0
2018-02-20T04:36:42.646Z,0
2018-02-20T04:37:52.638Z,0
2018-02-20T04:39:01.558Z,0
2018-02-20T04:40:11.281Z,0
2018-02-20T04:41:21.002Z,0
2018-02-20T04:42:30.744Z,0
2018-02-20T04:43:39.954Z,0
2018-02-20T04:44:49.425Z,0
2018-02-20T04:45:58.877Z,0
2018-02-20T04:47:07.803Z,0
2018-02-20T04:48:17.259Z,0
2018-02-20T04:49:27.259Z,0
2018-02-20T04:50:37.255Z,0
2018-02-20T04:51:46.716Z,0
2018-02-20T04:52:55.907Z,0
2018-02-20T04:54:05.364Z,0
2018-02-20T04:55:15.379Z,0
2018-02-20T04:56:24.839Z,0
2018-02-20T04:57:34.299Z,0
2018-02-20T04:58:43.759Z,0
2018-02-20T04:59:53.220Z,0
2018-02-20T05:01:02.678Z,0
2018-02-20T05:02:12.674Z,0
2018-02-20T05:03:22.124Z,0
2018-02-20T05:04:31.579Z,0
2018-02-20T05:05:41.577Z,0
2018-02-20T05:06:51.035Z,0
2018-02-20T05:08:01.025Z,0
2018-02-20T05:09:10.485Z,0
2018-02-20T05:10:20.206Z,0
2018-02-20T05:11:29.450Z,0
2018-02-20T05:12:39.445Z,0
2018-02-20T05:13:48.903Z,0
2018-02-20T05:14:58.621Z,0
2018-02-20T05:16:08.355Z,0
2018-02-20T05:17:17.543Z,0
2018-02-20T05:18:26.466Z,0
2018-02-20T05:19:36.196Z,0
2018-02-20T05:20:45.407Z,0
2018-02-20T05:21:55.193Z,0
2018-02-20T05:23:05.188Z,0
2018-02-20T05:24:14.660Z,0
2018-02-20T05:25:24.391Z,0
2018-02-20T05:26:33.852Z,0
2018-02-20T05:27:43.320Z,0
2018-02-20T05:28:53.067Z,0
2018-02-20T05:30:02.525Z,0
2018-02-20T05:31:11.990Z,0
2018-02-20T05:32:21.734Z,0
2018-02-20T05:33:31.722Z,0
2018-02-20T05:34:41.458Z,0
2018-02-20T05:35:51.182Z,0
2018-02-20T05:37:00.911Z,0
2018-02-20T05:38:10.367Z,0
2018-02-20T05:39:20.356Z,0
2018-02-20T05:40:30.347Z,0
2018-02-20T05:41:40.340Z,0
2018-02-20T05:42:50.057Z,0
2018-02-20T05:43:59.514Z,0
2018-02-20T05:45:08.712Z,0
2018-02-20T05:46:18.438Z,0
2018-02-20T05:47:28.211Z,0
2018-02-20T05:48:38.213Z,0
2018-02-20T05:49:47.942Z,0
2018-02-20T05:50:57.681Z,0
2018-02-20T05:52:07.410Z,0
2018-02-20T05:53:17.402Z,0
2018-02-20T05:54:26.593Z,0
2018-02-20T05:55:36.094Z,0
2018-02-20T05:56:45.434Z,0
2018-02-20T05:57:55.203Z,0
2018-02-20T05:59:05.012Z,0
2018-02-20T06:00:14.738Z,0
2018-02-20T06:01:23.678Z,0
2018-02-20T06:02:33.693Z,0
2018-02-20T06:03:43.429Z,0
2018-02-20T06:04:53.163Z,0
2018-02-20T06:06:02.353Z,0
2018-02-20T06:07:11.540Z,0
2018-02-20T06:08:21.300Z,0
2018-02-20T06:09:31.021Z,0
2018-02-20T06:10:40.751Z,0
2018-02-20T06:11:50.748Z,0
2018-02-20T06:13:00.741Z,0
2018-02-20T06:14:10.726Z,0
2018-02-20T06:15:20.451Z,0
2018-02-20T06:16:29.911Z,0
2018-02-20T06:17:39.636Z,0
2018-02-20T06:18:49.635Z,0
2018-02-20T06:19:59.139Z,0
2018-02-20T06:21:09.131Z,0
2018-02-20T06:22:19.179Z,0
2018-02-20T06:23:28.635Z,0
2018-02-20T06:24:37.831Z,0
2018-02-20T06:25:47.031Z,0
2018-02-20T06:26:56.490Z,0
2018-02-20T06:28:06.251Z,0
2018-02-20T06:29:15.716Z,0
2018-02-20T06:30:25.712Z,0
2018-02-20T06:31:35.436Z,0
2018-02-20T06:32:45.161Z,0
2018-02-20T06:33:54.892Z,0
2018-02-20T06:35:04.127Z,0
2018-02-20T06:36:13.854Z,0
2018-02-20T06:37:23.607Z,0
2018-02-20T06:38:33.372Z,0
2018-02-20T06:39:42.832Z,5
2018-02-20T06:40:52.291Z,5
2018-02-20T06:42:02.032Z,5
2018-02-20T06:43:12.053Z,5
2018-02-20T06:44:21.517Z,5
2018-02-20T06:45:31.044Z,5
2018-02-20T06:46:40.770Z,5
2018-02-20T06:47:49.959Z,5
2018-02-20T06:48:59.952Z,10
2018-02-20T06:50:09.684Z,10
2018-02-20T06:51:19.676Z,10
2018-02-20T06:52:29.404Z,10
2018-02-20T06:53:38.941Z,10
2018-02-20T06:54:48.929Z,10
2018-02-20T06:55:58.384Z,10
2018-02-20T06:57:07.842Z,15
2018-02-20T06:58:17.620Z,15
2018-02-20T06:59:27.619Z,15
2018-02-20T07:00:37.074Z,15
2018-02-20T07:01:46.799Z,15
2018-02-20T07:02:56.696Z,15
2018-02-20T07:04:06.711Z,15
2018-02-20T07:05:16.711Z,20
2018-02-20T07:06:25.905Z,20
2018-02-20T07:07:35.637Z,20
2018-02-20T07:08:45.120Z,20
2018-02-20T07:09:54.585Z,20
2018-02-20T07:11:04.631Z,20
2018-02-20T07:12:14.434Z,25
2018-02-20T07:13:23.895Z,25
2018-02-20T07:14:33.088Z,25
2018-02-20T07:15:42.858Z,25
2018-02-20T07:16:52.585Z,25
2018-02-20T07:18:02.380Z,25
2018-02-20T07:19:11.843Z,25
2018-02-20T07:20:21.579Z,30
2018-02-20T07:21:31.316Z,30
2018-02-20T07:22:41.038Z,30
2018-02-20T07:23:50.503Z,30
2018-02-20T07:25:00.227Z,30
2018-02-20T07:26:09.959Z,30
2018-02-20T07:27:19.692Z,30
2018-02-20T07:28:29.684Z,30
2018-02-20T07:29:39.453Z,35
2018-02-20T07:30:48.909Z,35
2018-02-20T07:31:58.676Z,35
2018-02-20T07:33:08.130Z,35
2018-02-20T07:34:17.589Z,35
2018-02-20T07:35:27.581Z,35
2018-02-20T07:36:37.302Z,35
2018-02-20T07:37:46.762Z,35
2018-02-20T07:38:55.684Z,40
2018-02-20T07:40:05.141Z,40
2018-02-20T07:41:14.596Z,40
2018-02-20T07:42:24.341Z,40
2018-02-20T07:43:33.546Z,40
2018-02-20T07:44:43.273Z,40
2018-02-20T07:45:52.729Z,40
2018-02-20T07:47:02.720Z,40
2018-02-20T07:48:12.187Z,45
2018-02-20T07:49:21.910Z,45
2018-02-20T07:50:31.918Z,45
2018-02-20T07:51:41.640Z,45
2018-02-20T07:52:51.631Z,45
2018-02-20T07:54:01.351Z,45
2018-02-20T07:55:11.087Z,45
2018-02-20T07:56:21.082Z,45
2018-02-20T07:57:30.548Z,45
2018-02-20T07:58:39.739Z,45
2018-02-20T07:59:49.462Z,50
2018-02-20T08:00:58.922Z,50
2018-02-20T08:02:08.646Z,50
2018-02-20T08:03:18.649Z,50
2018-02-20T08:04:28.642Z,50
2018-02-20T08:05:38.701Z,50
2018-02-20T08:06:48.425Z,50
2018-02-20T08:07:58.155Z,50
2018-02-20T08:09:07.889Z,50
2018-02-20T08:10:17.888Z,50
2018-02-20T08:11:27.354Z,50
2018-02-20T08:12:37.077Z,55
2018-02-20T08:13:46.806Z,55
2018-02-20T08:14:56.536Z,55
2018-02-20T08:16:06.540Z,55
2018-02-20T08:17:16.540Z,55
2018-02-20T08:18:26.267Z,55
2018-02-20T08:19:35.747Z,55
2018-02-20T08:20:45.738Z,55
2018-02-20T08:21:55.743Z,55
2018-02-20T08:23:05.734Z,55
2018-02-20T08:24:15.511Z,55
2018-02-20T08:25:24.969Z,60
2018-02-20T08:26:34.693Z,60
2018-02-20T08:27:44.682Z,60
2018-02-20T08:28:53.886Z,60
2018-02-20T08:30:03.346Z,60
2018-02-20T08:31:13.075Z,60
2018-02-20T08:32:22.001Z,60
2018-02-20T08:33:31.737Z,60
2018-02-20T08:34:41.459Z,60
2018-02-20T08:35:51.178Z,60
2018-02-20T08:37:00.382Z,60
2018-02-20T08:38:09.838Z,60
2018-02-20T08:39:19.825Z,60
2018-02-20T08:40:29.814Z,65
2018-02-20T08:41:39.547Z,65
2018-02-20T08:42:49.545Z,65
2018-02-20T08:43:59.535Z,65
2018-02-20T08:45:08.997Z,65
2018-02-20T08:46:18.184Z,65
2018-02-20T08:47:27.641Z,65
2018-02-20T08:48:37.632Z,65
2018-02-20T08:49:47.353Z,65
2018-02-20T08:50:56.012Z,65
2018-02-20T08:52:05.212Z,65
2018-02-20T08:53:15.068Z,65
2018-02-20T08:54:24.803Z,65
2018-02-20T08:55:34.799Z,65
2018-02-20T08:56:44.539Z,65
2018-02-20T08:57:54.529Z,65
2018-02-20T08:59:04.527Z,65
2018-02-20T09:00:14.434Z,70
2018-02-20T09:01:23.669Z,70
2018-02-20T09:02:33.717Z,70
2018-02-20T09:03:42.959Z,70
2018-02-20T09:04:52.683Z,70
2018-02-20T09:06:02.410Z,70
2018-02-20T09:07:12.221Z,70
2018-02-20T09:08:22.221Z,70
2018-02-20T09:09:32.247Z,70
2018-02-20T09:10:41.986Z,70
2018-02-20T09:11:51.180Z,70
2018-02-20T09:13:00.718Z,70
2018-02-20T09:14:10.491Z,70
2018-02-20T09:15:19.975Z,70
2018-02-20T09:16:29.775Z,70
2018-02-20T09:17:39.032Z,70
2018-02-20T09:18:48.809Z,70
2018-02-20T09:19:58.285Z,70
2018-02-20T09:21:07.495Z,75
2018-02-20T09:22:17.637Z,75
2018-02-20T09:23:27.366Z,75
2018-02-20T09:24:37.115Z,75
2018-02-20T09:25:46.583Z,75
2018-02-20T09:26:56.319Z,75
2018-02-20T09:28:06.351Z,75
2018-02-20T09:29:16.394Z,80
2018-02-20T09:30:26.179Z,80
2018-02-20T09:31:35.952Z,80
2018-02-20T09:32:44.896Z,80
2018-02-20T09:33:54.670Z,80
2018-02-20T09:35:04.403Z,80
2018-02-20T09:36:14.127Z,80
2018-02-20T09:37:23.596Z,80
2018-02-20T09:38:32.823Z,80
2018-02-20T09:39:42.571Z,80
2018-02-20T09:40:52.055Z,80
2018-02-20T09:42:01.834Z,80
2018-02-20T09:43:11.361Z,80
2018-02-20T09:44:20.830Z,85
2018-02-20T09:45:30.848Z,80
2018-02-20T09:46:40.318Z,80
2018-02-20T09:47:50.070Z,80
2018-02-20T09:48:59.865Z,80
2018-02-20T09:50:09.332Z,80
2018-02-20T09:51:19.548Z,80
2018-02-20T09:52:29.042Z,80
2018-02-20T09:53:38.773Z,80
2018-02-20T09:54:48.499Z,80
2018-02-20T09:55:58.507Z,85
2018-02-20T09:57:07.974Z,85
2018-02-20T09:58:17.965Z,85
2018-02-20T09:59:27.767Z,85
2018-02-20T10:00:37.257Z,85
2018-02-20T10:01:47.300Z,85
2018-02-20T10:02:56.230Z,90
2018-02-20T10:04:06.234Z,90
2018-02-20T10:05:15.699Z,90
2018-02-20T10:06:25.174Z,90
2018-02-20T10:07:34.902Z,90
2018-02-20T10:08:44.627Z,90
2018-02-20T10:09:54.374Z,90
2018-02-20T10:11:03.870Z,90
2018-02-20T10:12:13.659Z,90
2018-02-20T10:13:23.160Z,90
2018-02-20T10:14:33.291Z,90
2018-02-20T10:15:42.809Z,90
2018-02-20T10:16:52.615Z,90
2018-02-20T10:18:02.088Z,90
2018-02-20T10:19:12.130Z,90
2018-02-20T10:20:21.606Z,90
2018-02-20T10:21:31.336Z,90
2018-02-20T10:22:40.800Z,90
2018-02-20T10:23:50.045Z,90
2018-02-20T10:24:59.783Z,90
2018-02-20T10:26:09.409Z,90
2018-02-20T10:27:19.251Z,90
2018-02-20T10:28:28.985Z,90
2018-02-20T10:29:38.983Z,90
2018-02-20T10:30:48.958Z,90
2018-02-20T10:31:59.064Z,90
2018-02-20T10:33:08.859Z,90
2018-02-20T10:34:18.318Z,85
2018-02-20T10:35:28.137Z,90
2018-02-20T10:36:38.630Z,90
2018-02-20T10:37:48.086Z,90
2018-02-20T10:38:57.286Z,85
2018-02-20T10:40:06.494Z,90
2018-02-20T10:41:16.240Z,95
2018-02-20T10:42:25.728Z,95
2018-02-20T10:43:35.472Z,95
2018-02-20T10:44:45.478Z,95
2018-02-20T10:45:54.955Z,95
2018-02-20T10:47:04.425Z,95
2018-02-20T10:48:13.882Z,100
2018-02-20T10:49:23.609Z,100
2018-02-20T10:50:32.800Z,100
2018-02-20T10:51:42.525Z,100
2018-02-20T10:52:51.718Z,100
2018-02-20T10:54:01.188Z,100
2018-02-20T10:55:10.404Z,100
2018-02-20T10:56:20.141Z,100
2018-02-20T10:57:30.172Z,100
2018-02-20T10:58:39.897Z,105
2018-02-20T10:59:49.701Z,105
2018-02-20T11:00:59.439Z,105
2018-02-20T11:02:08.964Z,105
2018-02-20T11:03:18.962Z,105
2018-02-20T11:04:28.761Z,105
2018-02-20T11:05:38.759Z,105
2018-02-20T11:06:47.957Z,110
2018-02-20T11:07:57.155Z,110
2018-02-20T11:09:06.623Z,110
2018-02-20T11:10:16.352Z,110
2018-02-20T11:11:26.079Z,110
2018-02-20T11:12:35.280Z,110
2018-02-20T11:13:45.281Z,105
2018-02-20T11:14:54.735Z,105
2018-02-20T11:16:04.202Z,105
2018-02-20T11:17:13.925Z,110
2018-02-20T11:18:23.657Z,110
2018-02-20T11:19:32.856Z,105
2018-02-20T11:20:42.588Z,110
2018-02-20T11:21:51.774Z,110
2018-02-20T11:23:01.237Z,110
2018-02-20T11:24:10.696Z,110
2018-02-20T11:25:20.435Z,110
2018-02-20T11:26:29.903Z,110
2018-02-20T11:27:39.902Z,110
2018-02-20T11:28:49.641Z,110
2018-02-20T11:29:59.376Z,110
2018-02-20T11:31:08.839Z,105
2018-02-20T11:32:18.587Z,115
2018-02-20T11:33:28.453Z,115
2018-02-20T11:34:37.915Z,115
2018-02-20T11:35:47.646Z,115
2018-02-20T11:36:57.120Z,115
2018-02-20T11:38:06.857Z,115
2018-02-20T11:39:16.701Z,120
2018-02-20T11:40:26.702Z,120
2018-02-20T11:41:36.803Z,110
2018-02-20T11:42:46.538Z,120
2018-02-20T11:43:56.692Z,125
2018-02-20T11:45:06.163Z,115
2018-02-20T11:46:16.279Z,115
2018-02-20T11:47:25.748Z,125
2018-02-20T11:48:35.211Z,130
2018-02-20T11:49:45.217Z,115
2018-02-20T11:50:55.001Z,115
2018-02-20T11:52:04.752Z,110
2018-02-20T11:53:14.832Z,120
2018-02-20T11:54:24.591Z,115
2018-02-20T11:55:33.785Z,125
2018-02-20T11:56:43.511Z,130
2018-02-20T11:57:53.058Z,135
2018-02-20T11:59:02.784Z,125
2018-02-20T12:00:12.619Z,130
2018-02-20T12:01:22.118Z,115
2018-02-20T12:02:31.335Z,130
2018-02-20T12:03:40.815Z,125
2018-02-20T12:04:50.023Z,120
2018-02-20T12:06:00.025Z,115
2018-02-20T12:07:09.505Z,115
2018-02-20T12:08:19.613Z,135
2018-02-20T12:09:29.346Z,135
2018-02-20T12:10:38.821Z,120
2018-02-20T12:11:48.562Z,120
2018-02-20T12:12:58.040Z,120
2018-02-20T12:14:08.052Z,130
2018-02-20T12:15:17.785Z,130
2018-02-20T12:16:27.609Z,120
2018-02-20T12:17:37.377Z,140
2018-02-20T12:18:47.107Z,135
2018-02-20T12:19:56.569Z,125
2018-02-20T12:21:06.040Z,130
2018-02-20T12:22:16.040Z,140
2018-02-20T12:23:26.042Z,140
2018-02-20T12:24:35.512Z,135
2018-02-20T12:25:45.249Z,135
2018-02-20T12:26:55.255Z,120
2018-02-20T12:28:05.265Z,145
2018-02-20T12:29:14.527Z,140
2018-02-20T12:30:23.761Z,140
2018-02-20T12:31:33.547Z,130
2018-02-20T12:32:42.760Z,130
2018-02-20T12:33:52.500Z,125
2018-02-20T12:35:02.249Z,115
2018-02-20T12:36:12.241Z,120
2018-02-20T12:37:21.971Z,140
2018-02-20T12:38:31.962Z,120
2018-02-20T12:39:41.956Z,130
2018-02-20T12:40:51.425Z,120
2018-02-20T12:42:01.157Z,135
2018-02-20T12:43:10.642Z,130
2018-02-20T12:44:19.882Z,130
2018-02-20T12:45:29.380Z,140
2018-02-20T12:46:38.839Z,135
2018-02-20T12:47:48.569Z,170
2018-02-20T12:48:58.583Z,170
2018-02-20T12:50:08.358Z,175
2018-02-20T12:51:18.118Z,140
2018-02-20T12:52:27.957Z,155
2018-02-20T12:53:37.788Z,135
2018-02-20T12:54:47.795Z,135
2018-02-20T12:55:57.269Z,130
2018-02-20T12:57:06.734Z,125
2018-02-20T12:58:16.467Z,130
2018-02-20T12:59:26.264Z,130
2018-02-20T13:00:35.729Z,125
2018-02-20T13:01:45.200Z,125
2018-02-20T13:02:54.957Z,125
2018-02-20T13:04:04.433Z,125
2018-02-20T13:05:13.956Z,130
2018-02-20T13:06:23.693Z,130
2018-02-20T13:07:33.448Z,150
2018-02-20T13:08:43.200Z,185
2018-02-20T13:09:53.807Z,185
2018-02-20T13:11:03.720Z,175
2018-02-20T13:12:12.656Z,160
2018-02-20T13:13:22.399Z,150
2018-02-20T13:14:32.411Z,135
2018-02-20T13:15:41.742Z,130
2018-02-20T13:16:51.308Z,130
2018-02-20T13:18:00.838Z,125
2018-02-20T13:19:10.581Z,120
2018-02-20T13:20:20.319Z,120
2018-02-20T13:21:30.144Z,115
2018-02-20T13:22:39.897Z,115
2018-02-20T13:23:49.365Z,115
2018-02-20T13:24:59.464Z,110
2018-02-20T13:26:09.203Z,110
2018-02-20T13:27:18.718Z,110
2018-02-20T13:28:28.208Z,110
2018-02-20T13:29:37.938Z,105
2018-02-20T13:30:47.439Z,105
2018-02-20T13:31:57.441Z,105
2018-02-20T13:33:07.438Z,105
2018-02-20T13:34:16.646Z,105
2018-02-20T13:35:25.846Z,105
2018-02-20T13:36:35.315Z,105
2018-02-20T13:37:44.247Z,105
2018-02-20T13:38:53.713Z,110
2018-02-20T13:40:03.234Z,110
2018-02-20T13:41:12.972Z,105
2018-02-20T13:42:22.248Z,105
2018-02-20T13:43:31.841Z,125
2018-02-20T13:44:41.864Z,105
2018-02-20T13:45:51.339Z,110
2018-02-20T13:47:01.083Z,105
2018-02-20T13:48:10.561Z,105
2018-02-20T13:49:20.350Z,110
2018-02-20T13:50:30.095Z,125
2018-02-20T13:51:40.094Z,150
2018-02-20T13:52:49.589Z,155
2018-02-20T13:55:11.136Z,125
2018-02-20T13:56:20.895Z,125
2018-02-20T13:57:30.364Z,155
2018-02-20T13:58:40.180Z,130
2018-02-20T13:59:49.377Z,125
2018-02-20T14:00:59.106Z,125
2018-02-20T14:02:08.850Z,125
2018-02-20T14:03:18.671Z,125
2018-02-20T14:04:28.441Z,135
2018-02-20T14:05:38.488Z,140
2018-02-20T14:06:48.542Z,145
2018-02-20T14:07:57.744Z,130
2018-02-20T14:09:07.819Z,120
2018-02-20T14:10:17.387Z,120
2018-02-20T14:11:27.143Z,120
2018-02-20T14:12:37.151Z,115
2018-02-20T14:13:47.155Z,110
2018-02-20T14:14:56.886Z,110
2018-02-20T14:16:06.885Z,105
2018-02-20T14:17:16.084Z,100
2018-02-20T14:18:25.547Z,100
2018-02-20T14:19:35.283Z,100
2018-02-20T14:20:45.111Z,100
2018-02-20T14:21:54.576Z,100
2018-02-20T14:23:04.048Z,100
2018-02-20T14:24:13.810Z,100
2018-02-20T14:25:22.740Z,100
2018-02-20T14:26:31.822Z,100
2018-02-20T14:27:41.312Z,100
2018-02-20T14:28:50.833Z,100
2018-02-20T14:30:00.573Z,95
2018-02-20T14:31:10.045Z,95
2018-02-20T14:32:19.517Z,95
2018-02-20T14:33:29.567Z,95
2018-02-20T14:34:39.077Z,95
2018-02-20T14:35:48.888Z,90
2018-02-20T14:36:58.437Z,90
2018-02-20T14:38:07.902Z,90
2018-02-20T14:39:17.376Z,90
2018-02-20T14:40:26.614Z,85
2018-02-20T14:41:36.343Z,85
2018-02-20T14:42:46.380Z,80
2018-02-20T14:43:55.580Z,80
2018-02-20T14:45:05.059Z,75
2018-02-20T14:46:15.057Z,75
2018-02-20T14:47:24.790Z,75
2018-02-20T14:48:34.000Z,75
2018-02-20T14:49:43.464Z,75
2018-02-20T14:50:53.530Z,75
2018-02-20T14:52:03.320Z,75
2018-02-20T14:53:12.794Z,75
2018-02-20T14:54:21.995Z,70
2018-02-20T14:55:31.456Z,70
2018-02-20T14:56:40.919Z,70
2018-02-20T14:57:50.434Z,75
2018-02-20T14:59:00.448Z,70
2018-02-20T15:00:09.804Z,70
2018-02-20T15:01:18.833Z,70
2018-02-20T15:02:28.307Z,70
2018-02-20T15:03:37.772Z,70
2018-02-20T15:04:47.316Z,70
2018-02-20T15:05:57.310Z,70
2018-02-20T15:07:06.807Z,70
2018-02-20T15:08:16.551Z,70
2018-02-20T15:09:26.552Z,70
2018-02-20T15:10:35.819Z,70
2018-02-20T15:11:45.664Z,70
2018-02-20T15:12:55.146Z,65
2018-02-20T15:14:04.876Z,65
2018-02-20T15:15:14.878Z,65
2018-02-20T15:16:24.734Z,65
2018-02-20T15:17:34.484Z,65
2018-02-20T15:18:44.244Z,65
2018-02-20T15:19:54.010Z,65
2018-02-20T15:21:03.459Z,60
2018-02-20T15:22:13.478Z,60
2018-02-20T15:23:22.944Z,60
2018-02-20T15:24:32.416Z,60
2018-02-20T15:25:42.409Z,60
2018-02-20T15:26:51.887Z,60
2018-02-20T15:28:01.370Z,60
2018-02-20T15:29:11.379Z,60
2018-02-20T15:30:20.575Z,60
2018-02-20T15:31:29.776Z,60
2018-02-20T15:32:39.785Z,60
2018-02-20T15:33:49.255Z,55
2018-02-20T15:34:58.986Z,55
2018-02-20T15:36:08.990Z,55
2018-02-20T15:37:18.735Z,55
2018-02-20T15:38:28.499Z,50
2018-02-20T15:39:37.967Z,50
2018-02-20T15:40:47.716Z,50
2018-02-20T15:41:57.461Z,50
2018-02-20T15:43:07.209Z,45
2018-02-20T15:44:16.678Z,45
2018-02-20T15:45:26.152Z,40
2018-02-20T15:46:35.953Z,40
2018-02-20T15:47:46.042Z,40
2018-02-20T15:48:56.084Z,35
2018-02-20T15:50:05.836Z,35
2018-02-20T15:51:15.660Z,35
2018-02-20T15:52:25.824Z,30
2018-02-20T15:53:35.826Z,30
2018-02-20T15:54:45.586Z,30
2018-02-20T15:55:55.332Z,30
2018-02-20T15:57:05.345Z,25
2018-02-20T15:58:14.817Z,25
2018-02-20T15:59:24.830Z,25
2018-02-20T16:00:34.845Z,25
2018-02-20T16:01:44.636Z,25
2018-02-20T16:02:54.389Z,25
2018-02-20T16:04:03.873Z,20
2018-02-20T16:05:13.883Z,20
2018-02-20T16:06:23.626Z,20
2018-02-20T16:07:32.857Z,20
2018-02-20T16:08:42.932Z,20
2018-02-20T16:09:52.131Z,20
2018-02-20T16:11:01.339Z,20
2018-02-20T16:12:11.353Z,20
2018-02-20T16:13:20.882Z,20
2018-02-20T16:14:30.372Z,20
2018-02-20T16:15:40.388Z,15
2018-02-20T16:16:50.304Z,15
2018-02-20T16:18:00.338Z,15
2018-02-20T16:19:10.076Z,15
2018-02-20T16:20:19.550Z,15
2018-02-20T16:21:29.034Z,15
2018-02-20T16:22:38.774Z,15
2018-02-20T16:23:48.792Z,15
2018-02-20T16:24:58.561Z,15
2018-02-20T16:26:08.284Z,15
2018-02-20T16:27:17.758Z,15
2018-02-20T16:28:27.504Z,15
2018-02-20T16:29:37.074Z,10
2018-02-20T16:30:47.153Z,10
2018-02-20T16:31:57.148Z,10
2018-02-20T16:33:06.634Z,10
2018-02-20T16:34:16.119Z,10
2018-02-20T16:35:25.589Z,10
2018-02-20T16:36:35.057Z,10
2018-02-20T16:37:45.107Z,10
2018-02-20T16:38:55.120Z,10
2018-02-20T16:40:04.867Z,10
2018-02-20T16:41:14.070Z,5